sensor_id;sensor_type;location;lat;lon;timestamp;P1;durP1;ratioP1;P2;durP2;ratioP2
26536;SDS011;14204;51.262;5.488;2023-03-03T00:02:07;48.38;;;22.02;;
26536;SDS011;14204;51.262;5.488;2023-03-03T00:04:33;48.42;;;22.52;;
26536;SDS011;14204;51.262;5.488;2023-03-03T00:06:58;48.50;;;23.35;;
26536;SDS011;14204;51.262;5.488;2023-03-03T00:09:24;47.30;;;22.60;;
26536;SDS011;14204;51.262;5.488;2023-03-03T00:11:53;49.72;;;23.60;;
26536;SDS011;14204;51.262;5.488;2023-03-03T00:14:21;45.13;;;22.33;;
26536;SDS011;14204;51.262;5.488;2023-03-03T00:16:52;47.28;;;21.95;;
26536;SDS011;14204;51.262;5.488;2023-03-03T00:19:19;42.92;;;21.50;;
26536;SDS011;14204;51.262;5.488;2023-03-03T00:21:47;49.75;;;23.67;;
26536;SDS011;14204;51.262;5.488;2023-03-03T00:27:01;46.85;;;22.27;;
26536;SDS011;14204;51.262;5.488;2023-03-03T00:29:45;49.83;;;23.63;;
26536;SDS011;14204;51.262;5.488;2023-03-03T00:34:54;48.08;;;22.92;;
26536;SDS011;14204;51.262;5.488;2023-03-03T00:37:26;52.42;;;23.15;;
26536;SDS011;14204;51.262;5.488;2023-03-03T00:40:39;51.17;;;24.05;;
26536;SDS011;14204;51.262;5.488;2023-03-03T00:42:46;47.20;;;23.25;;
26536;SDS011;14204;51.262;5.488;2023-03-03T00:45:26;47.42;;;22.27;;
26536;SDS011;14204;51.262;5.488;2023-03-03T00:47:58;49.30;;;22.95;;
26536;SDS011;14204;51.262;5.488;2023-03-03T00:50:47;50.55;;;23.80;;
26536;SDS011;14204;51.262;5.488;2023-03-03T00:53:14;55.38;;;24.58;;
26536;SDS011;14204;51.262;5.488;2023-03-03T00:55:42;53.50;;;23.67;;
26536;SDS011;14204;51.262;5.488;2023-03-03T00:58:10;48.75;;;22.60;;
26536;SDS011;14204;51.262;5.488;2023-03-03T01:00:36;53.00;;;23.95;;
26536;SDS011;14204;51.262;5.488;2023-03-03T01:03:04;50.30;;;23.85;;
26536;SDS011;14204;51.262;5.488;2023-03-03T01:05:32;50.22;;;23.25;;
26536;SDS011;14204;51.262;5.488;2023-03-03T01:07:59;53.20;;;24.15;;
26536;SDS011;14204;51.262;5.488;2023-03-03T01:10:26;48.45;;;22.77;;
26536;SDS011;14204;51.262;5.488;2023-03-03T01:12:54;55.38;;;24.65;;
26536;SDS011;14204;51.262;5.488;2023-03-03T01:15:20;50.38;;;23.00;;
26536;SDS011;14204;51.262;5.488;2023-03-03T01:17:45;56.03;;;26.45;;
26536;SDS011;14204;51.262;5.488;2023-03-03T01:20:12;51.58;;;25.10;;
26536;SDS011;14204;51.262;5.488;2023-03-03T01:22:38;52.80;;;24.90;;
26536;SDS011;14204;51.262;5.488;2023-03-03T01:25:04;59.78;;;26.00;;
26536;SDS011;14204;51.262;5.488;2023-03-03T01:27:30;62.28;;;27.25;;
26536;SDS011;14204;51.262;5.488;2023-03-03T01:29:56;62.45;;;30.33;;
26536;SDS011;14204;51.262;5.488;2023-03-03T01:32:23;64.68;;;29.20;;
26536;SDS011;14204;51.262;5.488;2023-03-03T01:34:49;72.50;;;30.92;;
26536;SDS011;14204;51.262;5.488;2023-03-03T01:37:15;65.10;;;28.73;;
26536;SDS011;14204;51.262;5.488;2023-03-03T01:39:40;62.47;;;28.08;;
26536;SDS011;14204;51.262;5.488;2023-03-03T01:42:06;67.05;;;29.55;;
26536;SDS011;14204;51.262;5.488;2023-03-03T01:44:32;63.70;;;28.50;;
26536;SDS011;14204;51.262;5.488;2023-03-03T01:52:18;66.28;;;28.85;;
26536;SDS011;14204;51.262;5.488;2023-03-03T01:54:53;75.82;;;31.42;;
26536;SDS011;14204;51.262;5.488;2023-03-03T01:57:25;74.03;;;32.05;;
26536;SDS011;14204;51.262;5.488;2023-03-03T01:59:56;75.28;;;31.25;;
26536;SDS011;14204;51.262;5.488;2023-03-03T02:02:23;74.32;;;30.83;;
26536;SDS011;14204;51.262;5.488;2023-03-03T02:04:51;69.78;;;29.83;;
26536;SDS011;14204;51.262;5.488;2023-03-03T02:07:16;68.43;;;33.17;;
26536;SDS011;14204;51.262;5.488;2023-03-03T02:12:22;75.40;;;30.80;;
26536;SDS011;14204;51.262;5.488;2023-03-03T02:14:55;79.95;;;33.60;;
26536;SDS011;14204;51.262;5.488;2023-03-03T02:17:20;77.78;;;31.23;;
26536;SDS011;14204;51.262;5.488;2023-03-03T02:19:50;76.45;;;30.98;;
26536;SDS011;14204;51.262;5.488;2023-03-03T02:22:17;79.88;;;31.42;;
26536;SDS011;14204;51.262;5.488;2023-03-03T02:24:52;80.35;;;30.50;;
26536;SDS011;14204;51.262;5.488;2023-03-03T02:27:25;80.80;;;30.67;;
26536;SDS011;14204;51.262;5.488;2023-03-03T02:29:54;80.70;;;31.48;;
26536;SDS011;14204;51.262;5.488;2023-03-03T02:32:19;87.40;;;32.33;;
26536;SDS011;14204;51.262;5.488;2023-03-03T02:34:49;67.80;;;28.58;;
26536;SDS011;14204;51.262;5.488;2023-03-03T02:37:16;77.43;;;31.73;;
26536;SDS011;14204;51.262;5.488;2023-03-03T02:39:42;76.65;;;31.75;;
26536;SDS011;14204;51.262;5.488;2023-03-03T02:42:11;76.03;;;30.45;;
26536;SDS011;14204;51.262;5.488;2023-03-03T02:44:45;78.20;;;29.73;;
26536;SDS011;14204;51.262;5.488;2023-03-03T02:47:11;79.47;;;30.75;;
26536;SDS011;14204;51.262;5.488;2023-03-03T02:49:37;72.97;;;30.25;;
26536;SDS011;14204;51.262;5.488;2023-03-03T02:52:04;74.43;;;30.58;;
26536;SDS011;14204;51.262;5.488;2023-03-03T02:54:34;71.93;;;30.08;;
26536;SDS011;14204;51.262;5.488;2023-03-03T02:57:00;75.53;;;29.88;;
26536;SDS011;14204;51.262;5.488;2023-03-03T02:59:26;65.85;;;27.80;;
26536;SDS011;14204;51.262;5.488;2023-03-03T03:01:52;76.80;;;29.42;;
26536;SDS011;14204;51.262;5.488;2023-03-03T03:04:19;72.63;;;27.88;;
26536;SDS011;14204;51.262;5.488;2023-03-03T03:06:46;69.95;;;27.15;;
26536;SDS011;14204;51.262;5.488;2023-03-03T03:09:13;73.15;;;27.58;;
26536;SDS011;14204;51.262;5.488;2023-03-03T03:11:39;80.90;;;29.40;;
26536;SDS011;14204;51.262;5.488;2023-03-03T03:14:08;70.35;;;27.27;;
26536;SDS011;14204;51.262;5.488;2023-03-03T03:16:35;72.32;;;27.63;;
26536;SDS011;14204;51.262;5.488;2023-03-03T03:19:01;74.38;;;30.02;;
26536;SDS011;14204;51.262;5.488;2023-03-03T03:21:27;77.43;;;29.38;;
26536;SDS011;14204;51.262;5.488;2023-03-03T03:23:53;79.88;;;30.60;;
26536;SDS011;14204;51.262;5.488;2023-03-03T03:26:19;77.97;;;29.80;;
26536;SDS011;14204;51.262;5.488;2023-03-03T03:28:48;82.35;;;30.65;;
26536;SDS011;14204;51.262;5.488;2023-03-03T03:31:16;64.95;;;27.00;;
26536;SDS011;14204;51.262;5.488;2023-03-03T03:33:42;82.00;;;29.67;;
26536;SDS011;14204;51.262;5.488;2023-03-03T03:36:08;74.95;;;27.90;;
26536;SDS011;14204;51.262;5.488;2023-03-03T03:38:34;76.60;;;28.50;;
26536;SDS011;14204;51.262;5.488;2023-03-03T03:41:04;68.72;;;29.08;;
26536;SDS011;14204;51.262;5.488;2023-03-03T03:43:30;78.07;;;31.77;;
26536;SDS011;14204;51.262;5.488;2023-03-03T03:45:56;81.65;;;31.38;;
26536;SDS011;14204;51.262;5.488;2023-03-03T03:48:22;78.60;;;31.08;;
26536;SDS011;14204;51.262;5.488;2023-03-03T03:50:48;74.25;;;29.15;;
26536;SDS011;14204;51.262;5.488;2023-03-03T03:53:15;74.82;;;28.75;;
26536;SDS011;14204;51.262;5.488;2023-03-03T03:55:41;73.32;;;28.83;;
26536;SDS011;14204;51.262;5.488;2023-03-03T03:58:07;69.40;;;27.70;;
26536;SDS011;14204;51.262;5.488;2023-03-03T04:00:33;75.00;;;29.50;;
26536;SDS011;14204;51.262;5.488;2023-03-03T04:02:59;70.82;;;27.75;;
26536;SDS011;14204;51.262;5.488;2023-03-03T04:05:24;70.38;;;26.35;;
26536;SDS011;14204;51.262;5.488;2023-03-03T04:07:50;70.78;;;28.45;;
26536;SDS011;14204;51.262;5.488;2023-03-03T04:10:16;81.10;;;30.10;;
26536;SDS011;14204;51.262;5.488;2023-03-03T04:12:42;79.22;;;29.65;;
26536;SDS011;14204;51.262;5.488;2023-03-03T04:15:09;71.38;;;27.60;;
26536;SDS011;14204;51.262;5.488;2023-03-03T04:17:36;79.07;;;28.48;;
26536;SDS011;14204;51.262;5.488;2023-03-03T04:20:02;77.32;;;29.67;;
26536;SDS011;14204;51.262;5.488;2023-03-03T04:22:29;78.93;;;29.15;;
26536;SDS011;14204;51.262;5.488;2023-03-03T04:24:58;71.28;;;30.02;;
26536;SDS011;14204;51.262;5.488;2023-03-03T04:27:24;74.78;;;30.05;;
26536;SDS011;14204;51.262;5.488;2023-03-03T04:29:50;78.65;;;29.73;;
26536;SDS011;14204;51.262;5.488;2023-03-03T04:32:16;73.72;;;28.10;;
26536;SDS011;14204;51.262;5.488;2023-03-03T04:34:42;72.95;;;29.00;;
26536;SDS011;14204;51.262;5.488;2023-03-03T04:37:08;76.93;;;29.70;;
26536;SDS011;14204;51.262;5.488;2023-03-03T04:39:34;79.80;;;29.45;;
26536;SDS011;14204;51.262;5.488;2023-03-03T04:42:00;71.65;;;28.88;;
26536;SDS011;14204;51.262;5.488;2023-03-03T04:44:25;82.55;;;29.92;;
26536;SDS011;14204;51.262;5.488;2023-03-03T04:46:51;76.60;;;28.65;;
26536;SDS011;14204;51.262;5.488;2023-03-03T04:49:17;71.28;;;28.27;;
26536;SDS011;14204;51.262;5.488;2023-03-03T04:51:42;71.43;;;28.35;;
26536;SDS011;14204;51.262;5.488;2023-03-03T04:54:08;70.20;;;28.42;;
26536;SDS011;14204;51.262;5.488;2023-03-03T04:56:34;75.35;;;28.95;;
26536;SDS011;14204;51.262;5.488;2023-03-03T04:58:59;79.93;;;30.15;;
26536;SDS011;14204;51.262;5.488;2023-03-03T05:01:25;75.10;;;29.75;;
26536;SDS011;14204;51.262;5.488;2023-03-03T05:03:51;79.03;;;28.90;;
26536;SDS011;14204;51.262;5.488;2023-03-03T05:06:16;74.75;;;29.90;;
26536;SDS011;14204;51.262;5.488;2023-03-03T05:08:43;84.63;;;31.08;;
26536;SDS011;14204;51.262;5.488;2023-03-03T05:11:09;75.15;;;29.17;;
26536;SDS011;14204;51.262;5.488;2023-03-03T05:13:35;69.38;;;28.50;;
26536;SDS011;14204;51.262;5.488;2023-03-03T05:16:01;70.10;;;28.42;;
26536;SDS011;14204;51.262;5.488;2023-03-03T05:18:27;71.63;;;28.50;;
26536;SDS011;14204;51.262;5.488;2023-03-03T05:20:52;70.40;;;28.38;;
26536;SDS011;14204;51.262;5.488;2023-03-03T05:23:19;71.30;;;28.35;;
26536;SDS011;14204;51.262;5.488;2023-03-03T05:25:48;74.20;;;29.70;;
26536;SDS011;14204;51.262;5.488;2023-03-03T05:28:14;73.32;;;28.25;;
26536;SDS011;14204;51.262;5.488;2023-03-03T05:30:40;76.60;;;30.83;;
26536;SDS011;14204;51.262;5.488;2023-03-03T05:33:06;73.60;;;28.80;;
26536;SDS011;14204;51.262;5.488;2023-03-03T05:35:32;70.82;;;29.48;;
26536;SDS011;14204;51.262;5.488;2023-03-03T05:37:58;67.65;;;28.90;;
26536;SDS011;14204;51.262;5.488;2023-03-03T05:40:24;81.35;;;31.73;;
26536;SDS011;14204;51.262;5.488;2023-03-03T05:42:50;73.43;;;30.63;;
26536;SDS011;14204;51.262;5.488;2023-03-03T05:45:16;78.18;;;32.20;;
26536;SDS011;14204;51.262;5.488;2023-03-03T05:47:45;75.53;;;30.80;;
26536;SDS011;14204;51.262;5.488;2023-03-03T05:50:11;72.80;;;31.02;;
26536;SDS011;14204;51.262;5.488;2023-03-03T05:52:37;75.68;;;30.35;;
26536;SDS011;14204;51.262;5.488;2023-03-03T05:55:03;72.38;;;30.23;;
26536;SDS011;14204;51.262;5.488;2023-03-03T05:57:29;78.30;;;29.80;;
26536;SDS011;14204;51.262;5.488;2023-03-03T05:59:55;67.97;;;28.38;;
26536;SDS011;14204;51.262;5.488;2023-03-03T06:02:21;66.68;;;28.65;;
26536;SDS011;14204;51.262;5.488;2023-03-03T06:04:46;74.22;;;30.83;;
26536;SDS011;14204;51.262;5.488;2023-03-03T06:07:12;74.93;;;32.38;;
26536;SDS011;14204;51.262;5.488;2023-03-03T06:09:38;72.55;;;29.27;;
26536;SDS011;14204;51.262;5.488;2023-03-03T06:12:03;70.70;;;29.13;;
26536;SDS011;14204;51.262;5.488;2023-03-03T06:14:29;71.75;;;28.50;;
26536;SDS011;14204;51.262;5.488;2023-03-03T06:16:55;70.82;;;28.85;;
26536;SDS011;14204;51.262;5.488;2023-03-03T06:19:22;77.45;;;31.15;;
26536;SDS011;14204;51.262;5.488;2023-03-03T06:21:48;69.55;;;29.58;;
26536;SDS011;14204;51.262;5.488;2023-03-03T06:24:14;67.45;;;28.20;;
26536;SDS011;14204;51.262;5.488;2023-03-03T06:26:40;60.08;;;27.75;;
26536;SDS011;14204;51.262;5.488;2023-03-03T06:29:06;69.90;;;30.75;;
26536;SDS011;14204;51.262;5.488;2023-03-03T06:31:32;69.90;;;28.98;;
26536;SDS011;14204;51.262;5.488;2023-03-03T06:33:57;64.53;;;28.05;;
26536;SDS011;14204;51.262;5.488;2023-03-03T06:36:23;65.07;;;29.48;;
26536;SDS011;14204;51.262;5.488;2023-03-03T06:38:49;65.40;;;29.85;;
26536;SDS011;14204;51.262;5.488;2023-03-03T06:41:15;70.50;;;28.92;;
26536;SDS011;14204;51.262;5.488;2023-03-03T06:43:41;72.22;;;29.38;;
26536;SDS011;14204;51.262;5.488;2023-03-03T06:46:07;70.75;;;29.60;;
26536;SDS011;14204;51.262;5.488;2023-03-03T06:48:33;74.22;;;30.88;;
26536;SDS011;14204;51.262;5.488;2023-03-03T06:50:59;75.80;;;30.88;;
26536;SDS011;14204;51.262;5.488;2023-03-03T06:53:27;70.90;;;29.52;;
26536;SDS011;14204;51.262;5.488;2023-03-03T06:55:57;71.95;;;29.63;;
26536;SDS011;14204;51.262;5.488;2023-03-03T06:58:23;63.83;;;27.35;;
26536;SDS011;14204;51.262;5.488;2023-03-03T07:03:25;65.50;;;26.83;;
26536;SDS011;14204;51.262;5.488;2023-03-03T07:06:00;67.10;;;27.13;;
26536;SDS011;14204;51.262;5.488;2023-03-03T07:08:30;62.60;;;26.48;;
26536;SDS011;14204;51.262;5.488;2023-03-03T07:10:59;63.95;;;25.60;;
26536;SDS011;14204;51.262;5.488;2023-03-03T07:13:30;60.22;;;24.85;;
26536;SDS011;14204;51.262;5.488;2023-03-03T07:15:59;62.35;;;26.40;;
26536;SDS011;14204;51.262;5.488;2023-03-03T07:18:39;62.63;;;25.02;;
26536;SDS011;14204;51.262;5.488;2023-03-03T07:21:27;63.40;;;26.65;;
26536;SDS011;14204;51.262;5.488;2023-03-03T07:24:00;70.43;;;28.40;;
26536;SDS011;14204;51.262;5.488;2023-03-03T07:26:36;73.68;;;28.25;;
26536;SDS011;14204;51.262;5.488;2023-03-03T07:29:04;73.68;;;27.90;;
26536;SDS011;14204;51.262;5.488;2023-03-03T07:31:40;70.20;;;26.35;;
26536;SDS011;14204;51.262;5.488;2023-03-03T07:34:20;60.40;;;25.73;;
26536;SDS011;14204;51.262;5.488;2023-03-03T07:37:15;66.05;;;26.50;;
26536;SDS011;14204;51.262;5.488;2023-03-03T07:39:50;65.90;;;28.30;;
26536;SDS011;14204;51.262;5.488;2023-03-03T07:45:19;62.88;;;26.70;;
26536;SDS011;14204;51.262;5.488;2023-03-03T07:47:48;66.57;;;27.08;;
26536;SDS011;14204;51.262;5.488;2023-03-03T07:50:15;60.80;;;25.20;;
26536;SDS011;14204;51.262;5.488;2023-03-03T07:52:57;60.55;;;26.73;;
26536;SDS011;14204;51.262;5.488;2023-03-03T07:57:57;61.25;;;24.77;;
26536;SDS011;14204;51.262;5.488;2023-03-03T08:03:07;55.45;;;23.02;;
26536;SDS011;14204;51.262;5.488;2023-03-03T08:05:46;59.45;;;23.83;;
26536;SDS011;14204;51.262;5.488;2023-03-03T08:11:01;55.75;;;22.92;;
26536;SDS011;14204;51.262;5.488;2023-03-03T08:18:33;54.83;;;23.20;;
26536;SDS011;14204;51.262;5.488;2023-03-03T08:21:02;48.60;;;21.23;;
26536;SDS011;14204;51.262;5.488;2023-03-03T08:23:28;50.08;;;21.08;;
26536;SDS011;14204;51.262;5.488;2023-03-03T08:25:54;52.95;;;22.15;;
26536;SDS011;14204;51.262;5.488;2023-03-03T08:28:20;49.47;;;20.08;;
26536;SDS011;14204;51.262;5.488;2023-03-03T08:30:46;50.22;;;19.63;;
26536;SDS011;14204;51.262;5.488;2023-03-03T08:33:13;44.03;;;18.90;;
26536;SDS011;14204;51.262;5.488;2023-03-03T08:35:39;43.65;;;18.30;;
26536;SDS011;14204;51.262;5.488;2023-03-03T08:38:05;43.85;;;18.52;;
26536;SDS011;14204;51.262;5.488;2023-03-03T08:40:32;49.13;;;19.50;;
26536;SDS011;14204;51.262;5.488;2023-03-03T08:42:58;43.50;;;18.70;;
26536;SDS011;14204;51.262;5.488;2023-03-03T08:45:25;51.42;;;20.90;;
26536;SDS011;14204;51.262;5.488;2023-03-03T08:47:51;45.45;;;19.90;;
26536;SDS011;14204;51.262;5.488;2023-03-03T08:50:17;46.00;;;19.40;;
26536;SDS011;14204;51.262;5.488;2023-03-03T08:52:43;44.10;;;18.95;;
26536;SDS011;14204;51.262;5.488;2023-03-03T08:55:09;41.40;;;18.38;;
26536;SDS011;14204;51.262;5.488;2023-03-03T08:57:35;46.28;;;19.75;;
26536;SDS011;14204;51.262;5.488;2023-03-03T09:00:03;47.40;;;19.45;;
26536;SDS011;14204;51.262;5.488;2023-03-03T09:02:30;45.13;;;18.10;;
26536;SDS011;14204;51.262;5.488;2023-03-03T09:04:55;43.95;;;19.23;;
26536;SDS011;14204;51.262;5.488;2023-03-03T09:07:21;45.55;;;19.13;;
26536;SDS011;14204;51.262;5.488;2023-03-03T09:09:47;46.50;;;19.17;;
26536;SDS011;14204;51.262;5.488;2023-03-03T09:12:16;45.33;;;19.98;;
26536;SDS011;14204;51.262;5.488;2023-03-03T09:14:53;50.08;;;20.48;;
26536;SDS011;14204;51.262;5.488;2023-03-03T09:19:50;47.42;;;21.30;;
26536;SDS011;14204;51.262;5.488;2023-03-03T09:22:22;44.45;;;19.17;;
26536;SDS011;14204;51.262;5.488;2023-03-03T09:24:50;45.70;;;18.50;;
26536;SDS011;14204;51.262;5.488;2023-03-03T09:27:20;43.38;;;17.85;;
26536;SDS011;14204;51.262;5.488;2023-03-03T09:29:49;41.10;;;18.20;;
26536;SDS011;14204;51.262;5.488;2023-03-03T09:34:44;46.65;;;19.42;;
26536;SDS011;14204;51.262;5.488;2023-03-03T09:40:55;43.42;;;19.13;;
26536;SDS011;14204;51.262;5.488;2023-03-03T09:48:54;49.30;;;21.00;;
26536;SDS011;14204;51.262;5.488;2023-03-03T09:56:46;52.60;;;20.38;;
26536;SDS011;14204;51.262;5.488;2023-03-03T10:07:57;45.53;;;20.63;;
26536;SDS011;14204;51.262;5.488;2023-03-03T10:10:33;48.47;;;20.25;;
26536;SDS011;14204;51.262;5.488;2023-03-03T10:18:50;38.40;;;17.15;;
26536;SDS011;14204;51.262;5.488;2023-03-03T10:21:38;46.67;;;19.50;;
26536;SDS011;14204;51.262;5.488;2023-03-03T10:24:30;46.92;;;19.75;;
26536;SDS011;14204;51.262;5.488;2023-03-03T10:30:18;43.63;;;19.50;;
26536;SDS011;14204;51.262;5.488;2023-03-03T10:32:57;43.75;;;19.55;;
26536;SDS011;14204;51.262;5.488;2023-03-03T10:35:34;44.75;;;20.15;;
26536;SDS011;14204;51.262;5.488;2023-03-03T10:54:29;40.83;;;18.77;;
26536;SDS011;14204;51.262;5.488;2023-03-03T10:57:15;39.92;;;18.58;;
26536;SDS011;14204;51.262;5.488;2023-03-03T11:02:50;36.90;;;16.98;;
26536;SDS011;14204;51.262;5.488;2023-03-03T11:05:27;43.40;;;18.25;;
26536;SDS011;14204;51.262;5.488;2023-03-03T11:13:20;38.53;;;17.52;;
26536;SDS011;14204;51.262;5.488;2023-03-03T11:19:05;34.47;;;16.48;;
26536;SDS011;14204;51.262;5.488;2023-03-03T11:21:55;37.85;;;16.75;;
26536;SDS011;14204;51.262;5.488;2023-03-03T11:25:33;37.78;;;17.40;;
26536;SDS011;14204;51.262;5.488;2023-03-03T11:36:06;31.77;;;16.13;;
26536;SDS011;14204;51.262;5.488;2023-03-03T11:44:09;37.28;;;17.63;;
26536;SDS011;14204;51.262;5.488;2023-03-03T11:47:15;41.50;;;19.00;;
26536;SDS011;14204;51.262;5.488;2023-03-03T11:49:47;40.30;;;18.95;;
26536;SDS011;14204;51.262;5.488;2023-03-03T11:52:36;35.10;;;17.10;;
26536;SDS011;14204;51.262;5.488;2023-03-03T11:55:30;39.20;;;16.80;;
26536;SDS011;14204;51.262;5.488;2023-03-03T11:58:11;40.25;;;17.73;;
26536;SDS011;14204;51.262;5.488;2023-03-03T12:03:33;32.33;;;15.23;;
26536;SDS011;14204;51.262;5.488;2023-03-03T12:08:59;36.15;;;16.60;;
26536;SDS011;14204;51.262;5.488;2023-03-03T12:11:42;33.38;;;16.88;;
26536;SDS011;14204;51.262;5.488;2023-03-03T12:22:44;34.20;;;16.58;;
26536;SDS011;14204;51.262;5.488;2023-03-03T12:33:20;35.08;;;15.77;;
26536;SDS011;14204;51.262;5.488;2023-03-03T12:38:34;27.48;;;14.50;;
26536;SDS011;14204;51.262;5.488;2023-03-03T12:41:06;29.35;;;15.15;;
26536;SDS011;14204;51.262;5.488;2023-03-03T12:46:24;28.58;;;14.35;;
26536;SDS011;14204;51.262;5.488;2023-03-03T12:49:36;25.08;;;13.93;;
26536;SDS011;14204;51.262;5.488;2023-03-03T12:52:29;29.95;;;15.55;;
26536;SDS011;14204;51.262;5.488;2023-03-03T13:03:20;30.48;;;14.57;;
26536;SDS011;14204;51.262;5.488;2023-03-03T13:05:54;26.98;;;14.00;;
26536;SDS011;14204;51.262;5.488;2023-03-03T13:20:02;25.00;;;13.93;;
26536;SDS011;14204;51.262;5.488;2023-03-03T13:22:41;27.33;;;14.27;;
26536;SDS011;14204;51.262;5.488;2023-03-03T13:28:06;24.20;;;12.77;;
26536;SDS011;14204;51.262;5.488;2023-03-03T13:31:05;25.65;;;13.95;;
26536;SDS011;14204;51.262;5.488;2023-03-03T13:33:38;19.50;;;11.30;;
26536;SDS011;14204;51.262;5.488;2023-03-03T13:36:13;27.48;;;12.52;;
26536;SDS011;14204;51.262;5.488;2023-03-03T13:41:22;22.67;;;12.02;;
26536;SDS011;14204;51.262;5.488;2023-03-03T13:44:12;23.83;;;11.68;;
26536;SDS011;14204;51.262;5.488;2023-03-03T13:52:32;21.02;;;11.27;;
26536;SDS011;14204;51.262;5.488;2023-03-03T14:00:30;24.40;;;12.50;;
26536;SDS011;14204;51.262;5.488;2023-03-03T14:03:15;18.40;;;9.93;;
26536;SDS011;14204;51.262;5.488;2023-03-03T14:06:14;18.45;;;10.30;;
26536;SDS011;14204;51.262;5.488;2023-03-03T14:17:30;22.00;;;11.50;;
26536;SDS011;14204;51.262;5.488;2023-03-03T14:20:11;20.38;;;11.07;;
26536;SDS011;14204;51.262;5.488;2023-03-03T14:22:57;22.95;;;12.27;;
26536;SDS011;14204;51.262;5.488;2023-03-03T14:25:26;20.20;;;10.93;;
26536;SDS011;14204;51.262;5.488;2023-03-03T14:28:12;20.88;;;11.60;;
26536;SDS011;14204;51.262;5.488;2023-03-03T14:30:41;21.98;;;12.13;;
26536;SDS011;14204;51.262;5.488;2023-03-03T14:35:43;20.05;;;10.57;;
26536;SDS011;14204;51.262;5.488;2023-03-03T14:48:51;25.48;;;12.15;;
26536;SDS011;14204;51.262;5.488;2023-03-03T14:54:13;22.65;;;12.30;;
26536;SDS011;14204;51.262;5.488;2023-03-03T14:56:58;18.80;;;10.93;;
26536;SDS011;14204;51.262;5.488;2023-03-03T14:59:26;21.63;;;11.55;;
26536;SDS011;14204;51.262;5.488;2023-03-03T15:02:13;22.13;;;12.13;;
26536;SDS011;14204;51.262;5.488;2023-03-03T15:04:41;23.92;;;12.40;;
26536;SDS011;14204;51.262;5.488;2023-03-03T15:09:55;18.05;;;10.70;;
26536;SDS011;14204;51.262;5.488;2023-03-03T15:12:22;19.40;;;11.40;;
26536;SDS011;14204;51.262;5.488;2023-03-03T15:22:47;21.23;;;11.05;;
26536;SDS011;14204;51.262;5.488;2023-03-03T15:25:35;20.67;;;11.20;;
26536;SDS011;14204;51.262;5.488;2023-03-03T15:28:33;17.85;;;10.98;;
26536;SDS011;14204;51.262;5.488;2023-03-03T15:34:05;21.17;;;11.13;;
26536;SDS011;14204;51.262;5.488;2023-03-03T15:36:59;19.95;;;10.55;;
26536;SDS011;14204;51.262;5.488;2023-03-03T15:39:45;21.65;;;10.35;;
26536;SDS011;14204;51.262;5.488;2023-03-03T15:42:26;15.57;;;9.20;;
26536;SDS011;14204;51.262;5.488;2023-03-03T15:56:09;14.98;;;8.45;;
26536;SDS011;14204;51.262;5.488;2023-03-03T15:59:09;13.70;;;8.02;;
26536;SDS011;14204;51.262;5.488;2023-03-03T16:01:40;16.08;;;9.32;;
26536;SDS011;14204;51.262;5.488;2023-03-03T16:04:17;16.42;;;8.02;;
26536;SDS011;14204;51.262;5.488;2023-03-03T16:12:20;14.57;;;7.82;;
26536;SDS011;14204;51.262;5.488;2023-03-03T16:17:31;11.93;;;7.22;;
26536;SDS011;14204;51.262;5.488;2023-03-03T16:20:18;11.25;;;7.63;;
26536;SDS011;14204;51.262;5.488;2023-03-03T16:25:56;12.15;;;6.45;;
26536;SDS011;14204;51.262;5.488;2023-03-03T16:28:33;16.77;;;7.88;;
26536;SDS011;14204;51.262;5.488;2023-03-03T16:33:43;10.77;;;6.15;;
26536;SDS011;14204;51.262;5.488;2023-03-03T16:41:18;10.77;;;6.30;;
26536;SDS011;14204;51.262;5.488;2023-03-03T16:46:36;11.60;;;6.50;;
26536;SDS011;14204;51.262;5.488;2023-03-03T16:51:47;13.13;;;5.90;;
26536;SDS011;14204;51.262;5.488;2023-03-03T16:56:56;13.25;;;6.50;;
26536;SDS011;14204;51.262;5.488;2023-03-03T16:59:41;11.73;;;6.55;;
26536;SDS011;14204;51.262;5.488;2023-03-03T17:07:54;13.07;;;6.70;;
26536;SDS011;14204;51.262;5.488;2023-03-03T17:16:01;9.45;;;5.85;;
26536;SDS011;14204;51.262;5.488;2023-03-03T17:44:07;9.80;;;6.05;;
26536;SDS011;14204;51.262;5.488;2023-03-03T17:46:47;6.60;;;4.72;;
26536;SDS011;14204;51.262;5.488;2023-03-03T17:57:32;10.57;;;6.00;;
26536;SDS011;14204;51.262;5.488;2023-03-03T18:03:01;7.97;;;5.22;;
26536;SDS011;14204;51.262;5.488;2023-03-03T18:05:40;7.47;;;5.55;;
26536;SDS011;14204;51.262;5.488;2023-03-03T18:08:15;8.13;;;5.90;;
26536;SDS011;14204;51.262;5.488;2023-03-03T18:21:29;16.45;;;11.85;;
26536;SDS011;14204;51.262;5.488;2023-03-03T18:26:49;11.80;;;6.75;;
26536;SDS011;14204;51.262;5.488;2023-03-03T18:37:40;8.50;;;6.93;;
26536;SDS011;14204;51.262;5.488;2023-03-03T18:42:38;13.75;;;8.90;;
26536;SDS011;14204;51.262;5.488;2023-03-03T18:45:09;11.10;;;7.95;;
26536;SDS011;14204;51.262;5.488;2023-03-03T18:48:02;9.88;;;7.18;;
26536;SDS011;14204;51.262;5.488;2023-03-03T18:55:47;9.20;;;5.50;;
26536;SDS011;14204;51.262;5.488;2023-03-03T19:00:47;6.05;;;4.47;;
26536;SDS011;14204;51.262;5.488;2023-03-03T19:04:11;6.85;;;4.40;;
26536;SDS011;14204;51.262;5.488;2023-03-03T19:06:11;8.32;;;5.10;;
26536;SDS011;14204;51.262;5.488;2023-03-03T19:08:57;6.32;;;4.13;;
26536;SDS011;14204;51.262;5.488;2023-03-03T19:16:41;5.70;;;2.75;;
26536;SDS011;14204;51.262;5.488;2023-03-03T19:19:14;5.88;;;3.50;;
26536;SDS011;14204;51.262;5.488;2023-03-03T19:21:41;4.18;;;3.10;;
26536;SDS011;14204;51.262;5.488;2023-03-03T19:24:25;4.95;;;2.95;;
26536;SDS011;14204;51.262;5.488;2023-03-03T19:27:24;5.05;;;4.03;;
26536;SDS011;14204;51.262;5.488;2023-03-03T19:29:55;5.38;;;2.88;;
26536;SDS011;14204;51.262;5.488;2023-03-03T19:32:41;5.95;;;2.90;;
26536;SDS011;14204;51.262;5.488;2023-03-03T19:41:50;5.32;;;2.65;;
26536;SDS011;14204;51.262;5.488;2023-03-03T19:49:59;4.75;;;2.53;;
26536;SDS011;14204;51.262;5.488;2023-03-03T19:58:28;4.70;;;2.42;;
26536;SDS011;14204;51.262;5.488;2023-03-03T20:10:06;8.35;;;2.28;;
26536;SDS011;14204;51.262;5.488;2023-03-03T20:12:47;3.58;;;1.65;;
26536;SDS011;14204;51.262;5.488;2023-03-03T20:27:05;3.38;;;1.67;;
26536;SDS011;14204;51.262;5.488;2023-03-03T21:05:05;8.80;;;2.97;;
26536;SDS011;14204;51.262;5.488;2023-03-03T21:07:37;10.60;;;2.10;;
26536;SDS011;14204;51.262;5.488;2023-03-03T21:10:15;5.72;;;1.98;;
26536;SDS011;14204;51.262;5.488;2023-03-03T21:12:48;4.38;;;1.88;;
26536;SDS011;14204;51.262;5.488;2023-03-03T21:17:58;8.80;;;2.35;;
26536;SDS011;14204;51.262;5.488;2023-03-03T21:20:28;6.75;;;2.08;;
26536;SDS011;14204;51.262;5.488;2023-03-03T21:22:59;11.40;;;2.47;;
26536;SDS011;14204;51.262;5.488;2023-03-03T21:36:19;8.00;;;2.50;;
26536;SDS011;14204;51.262;5.488;2023-03-03T21:38:47;5.32;;;2.72;;
26536;SDS011;14204;51.262;5.488;2023-03-03T21:41:14;9.52;;;2.38;;
26536;SDS011;14204;51.262;5.488;2023-03-03T21:43:44;8.63;;;2.72;;
26536;SDS011;14204;51.262;5.488;2023-03-03T21:46:12;13.07;;;2.55;;
26536;SDS011;14204;51.262;5.488;2023-03-03T21:48:41;7.63;;;2.55;;
26536;SDS011;14204;51.262;5.488;2023-03-03T21:51:08;5.50;;;2.60;;
26536;SDS011;14204;51.262;5.488;2023-03-03T21:53:34;8.45;;;2.42;;
26536;SDS011;14204;51.262;5.488;2023-03-03T21:56:00;5.80;;;2.83;;